Time;durP1;ratioP1;P1;durP2;ratioP2;P2;SDS_P1;SDS_P2;PMS_P1;PMS_P2;Temp;Humidity;BMP_temperature;BMP_pressure;BME280_temperature;BME280_humidity;BME280_pressure;Samples;Min_cycle;Max_cycle;Signal;HPM_P1;HPM_P2
2022/09/06 00:00:55;;;;;;;2.00;1.30;;;17.70;81.00;;;;;;5077781;28;20476;-46
2022/09/06 00:03:22;;;;;;;3.07;1.53;;;17.70;81.20;;;;;;5077456;28;20478;-44
2022/09/06 00:05:49;;;;;;;2.70;2.07;;;17.70;81.10;;;;;;5077606;28;20442;-42
2022/09/06 00:08:19;;;;;;;4.17;1.47;;;17.70;81.10;;;;;;5078203;28;20866;-45
2022/09/06 00:10:46;;;;;;;3.37;1.83;;;17.60;80.90;;;;;;5078867;28;20782;-43
2022/09/06 00:13:13;;;;;;;1.90;1.43;;;17.60;81.30;;;;;;5079033;28;20453;-43
2022/09/06 00:15:40;;;;;;;5.77;3.20;;;17.60;81.20;;;;;;5078709;28;20454;-44
2022/09/06 00:18:07;;;;;;;3.33;1.70;;;17.60;81.40;;;;;;5078597;28;20442;-54
2022/09/06 00:20:35;;;;;;;1.60;1.50;;;17.60;81.20;;;;;;5078000;28;20439;-45
2022/09/06 00:23:04;;;;;;;2.40;1.40;;;17.50;81.30;;;;;;5077148;28;20771;-48
2022/09/06 00:25:33;;;;;;;1.87;1.30;;;17.50;81.40;;;;;;5079468;28;20442;-48
2022/09/06 00:28:02;;;;;;;1.80;1.40;;;17.50;81.80;;;;;;5077636;28;20932;-47
2022/09/06 00:30:29;;;;;;;3.07;1.47;;;17.50;81.50;;;;;;5076788;28;20536;-49
2022/09/06 00:32:56;;;;;;;1.87;1.60;;;17.40;81.40;;;;;;5077142;28;20447;-48
2022/09/06 00:35:27;;;;;;;1.27;1.00;;;17.40;81.50;;;;;;5076956;28;20454;-49
2022/09/06 00:37:57;;;;;;;2.43;1.40;;;17.40;81.80;;;;;;5076776;28;20415;-48
2022/09/06 00:40:25;;;;;;;1.87;1.20;;;17.40;82.30;;;;;;5076845;28;20437;-47
2022/09/06 00:42:56;;;;;;;1.63;1.20;;;17.30;82.00;;;;;;5076456;28;20462;-47
2022/09/06 00:45:23;;;;;;;1.67;1.10;;;17.30;83.00;;;;;;5076531;28;20431;-46
2022/09/06 00:47:51;;;;;;;1.53;1.10;;;17.30;81.40;;;;;;5076780;28;20496;-45
2022/09/06 00:50:19;;;;;;;2.90;1.40;;;17.30;81.20;;;;;;5077700;28;20510;-53
2022/09/06 00:52:48;;;;;;;5.97;2.10;;;17.30;81.00;;;;;;5079596;28;20430;-47
2022/09/06 00:55:15;;;;;;;4.10;1.70;;;17.20;81.20;;;;;;5076494;28;20470;-44
2022/09/06 00:57:42;;;;;;;3.30;1.47;;;17.20;81.00;;;;;;5076513;28;20442;-45
2022/09/06 01:00:11;;;;;;;2.30;1.50;;;17.20;81.20;;;;;;5076439;28;20447;-44
2022/09/06 01:02:38;;;;;;;2.40;1.17;;;17.20;81.40;;;;;;5075743;28;20456;-50
2022/09/06 01:05:06;;;;;;;2.33;1.67;;;17.20;81.90;;;;;;5076441;28;20477;-48
2022/09/06 01:07:51;;;;;;;2.00;1.20;;;17.20;81.60;;;;;;5076212;28;20454;-50
2022/09/06 01:10:32;;;;;;;3.67;1.50;;;17.10;82.70;;;;;;5076286;28;20855;-49
2022/09/06 01:13:06;;;;;;;1.60;1.40;;;17.10;81.80;;;;;;5076261;28;20422;-46
2022/09/06 01:15:43;;;;;;;3.60;1.80;;;17.10;82.10;;;;;;5075983;28;20462;-48
2022/09/06 01:18:24;;;;;;;2.30;0.97;;;17.10;82.20;;;;;;5079087;28;20431;-47
2022/09/06 01:21:06;;;;;;;4.67;1.27;;;17.00;81.90;;;;;;5076177;28;20442;-45
2022/09/06 01:24:03;;;;;;;1.57;1.10;;;17.00;82.80;;;;;;5076001;28;20431;-48
2022/09/06 01:27:12;;;;;;;1.20;1.03;;;17.00;82.00;;;;;;5076992;28;20825;-49
2022/09/06 01:29:48;;;;;;;1.90;1.13;;;16.90;82.10;;;;;;5075760;28;20490;-49
2022/09/06 01:32:22;;;;;;;2.83;1.50;;;16.90;82.20;;;;;;5075977;28;20437;-48
2022/09/06 01:34:53;;;;;;;3.07;1.20;;;16.90;83.10;;;;;;5075676;28;20470;-45
2022/09/06 01:37:22;;;;;;;1.83;1.10;;;16.90;82.60;;;;;;5075746;28;20766;-46
2022/09/06 01:39:52;;;;;;;2.07;1.00;;;16.90;82.70;;;;;;5075654;28;20470;-45
2022/09/06 01:42:22;;;;;;;9.60;1.20;;;16.80;83.90;;;;;;5075557;28;21101;-48
2022/09/06 01:44:53;;;;;;;1.20;0.97;;;16.80;83.40;;;;;;5075507;28;20783;-48
2022/09/06 01:47:32;;;;;;;1.20;0.77;;;16.80;82.90;;;;;;5075564;28;20764;-45
2022/09/06 01:50:27;;;;;;;1.60;1.00;;;16.80;82.90;;;;;;5075304;28;20482;-51
2022/09/06 01:53:02;;;;;;;1.67;1.00;;;16.80;83.20;;;;;;5075368;28;20430;-47
2022/09/06 01:55:34;;;;;;;1.83;1.37;;;16.80;83.40;;;;;;5076400;28;20466;-50
2022/09/06 01:58:22;;;;;;;2.70;1.57;;;16.80;83.70;;;;;;5076942;28;20759;-44
2022/09/06 02:00:58;;;;;;;1.20;1.00;;;16.80;83.80;;;;;;5075530;28;20494;-44
2022/09/06 02:03:32;;;;;;;1.80;0.93;;;16.80;83.70;;;;;;5075565;28;20442;-46
2022/09/06 02:06:06;;;;;;;1.83;1.00;;;16.70;84.10;;;;;;5075329;28;20549;-45
2022/09/06 02:08:37;;;;;;;3.47;0.97;;;16.70;84.20;;;;;;5076697;28;20434;-50
2022/09/06 02:11:06;;;;;;;2.20;1.03;;;16.70;84.70;;;;;;5077358;28;20470;-46
2022/09/06 02:13:37;;;;;;;1.93;1.07;;;16.70;84.70;;;;;;5075975;28;20451;-48
2022/09/06 02:16:07;;;;;;;1.40;1.10;;;16.70;84.90;;;;;;5076949;28;20465;-45
2022/09/06 02:18:38;;;;;;;2.30;1.60;;;16.70;85.30;;;;;;5077107;28;20553;-45
2022/09/06 02:21:06;;;;;;;2.30;1.13;;;16.70;85.60;;;;;;5077078;28;20434;-46
2022/09/06 02:23:37;;;;;;;1.57;1.47;;;16.70;85.60;;;;;;5076929;28;20453;-44
2022/09/06 02:26:07;;;;;;;1.50;0.80;;;16.60;85.70;;;;;;5077029;28;20883;-47
2022/09/06 02:28:35;;;;;;;4.90;1.20;;;16.60;85.70;;;;;;5077085;28;20438;-45
2022/09/06 02:31:08;;;;;;;1.50;1.30;;;16.60;86.60;;;;;;5077092;28;20509;-45
2022/09/06 02:33:35;;;;;;;2.13;1.10;;;16.60;86.70;;;;;;5075835;28;20864;-46
2022/09/06 02:36:05;;;;;;;1.43;1.07;;;16.50;86.80;;;;;;5075237;28;20450;-45
2022/09/06 02:38:34;;;;;;;3.07;1.13;;;16.50;86.90;;;;;;5077260;28;20446;-45
2022/09/06 02:41:03;;;;;;;1.50;1.00;;;16.40;87.50;;;;;;5076323;28;20448;-45
2022/09/06 02:43:29;;;;;;;1.97;1.37;;;16.40;88.00;;;;;;5076843;28;20469;-45
2022/09/06 02:45:57;;;;;;;1.30;1.00;;;16.40;88.10;;;;;;5076845;28;20470;-53
2022/09/06 02:48:25;;;;;;;2.03;1.17;;;16.40;88.40;;;;;;5077372;28;20442;-48
2022/09/06 02:50:52;;;;;;;3.00;1.37;;;16.40;89.40;;;;;;5076580;28;20497;-46
2022/09/06 02:53:20;;;;;;;2.10;1.20;;;16.30;89.80;;;;;;5077222;28;20447;-48
2022/09/06 02:55:47;;;;;;;1.40;1.10;;;16.30;90.50;;;;;;5074864;28;20543;-45
2022/09/06 02:58:14;;;;;;;1.57;1.20;;;16.30;90.60;;;;;;5075021;28;20476;-45
2022/09/06 03:00:42;;;;;;;2.70;1.23;;;16.30;91.30;;;;;;5074807;28;20485;-45
2022/09/06 03:03:14;;;;;;;12.10;1.70;;;16.30;91.30;;;;;;5075913;28;20465;-51
2022/09/06 03:05:46;;;;;;;3.40;1.20;;;16.30;92.10;;;;;;5076807;28;20560;-46
2022/09/06 03:08:12;;;;;;;2.73;1.37;;;16.30;92.00;;;;;;5074719;28;20529;-47
2022/09/06 03:10:39;;;;;;;2.63;1.10;;;16.40;92.30;;;;;;5074537;28;20500;-47
2022/09/06 03:13:06;;;;;;;2.60;1.37;;;16.30;92.50;;;;;;5074342;28;20482;-48
2022/09/06 03:15:38;;;;;;;3.47;1.53;;;16.40;92.80;;;;;;5074489;28;20473;-49
2022/09/06 03:18:07;;;;;;;2.60;1.03;;;16.30;93.30;;;;;;5074477;28;20438;-50
2022/09/06 03:20:33;;;;;;;1.70;1.13;;;16.20;93.80;;;;;;5074365;28;20466;-50
2022/09/06 03:23:02;;;;;;;3.17;1.30;;;16.20;94.10;;;;;;5074434;28;20442;-45
2022/09/06 03:25:28;;;;;;;2.00;1.37;;;16.20;94.80;;;;;;5076519;28;20860;-48
2022/09/06 03:27:55;;;;;;;1.50;1.10;;;16.20;95.00;;;;;;5078427;28;20456;-45
2022/09/06 03:30:22;;;;;;;3.30;1.30;;;16.10;95.40;;;;;;5080478;28;20544;-53
2022/09/06 03:32:49;;;;;;;3.73;1.20;;;16.20;95.70;;;;;;5078320;28;20446;-48
2022/09/06 03:35:18;;;;;;;1.50;1.17;;;16.10;96.30;;;;;;5077969;28;20470;-49
2022/09/06 03:37:45;;;;;;;1.83;1.00;;;16.10;96.80;;;;;;5078181;28;20445;-48
2022/09/06 03:40:16;;;;;;;2.83;1.20;;;16.10;96.90;;;;;;5078506;28;20473;-54
2022/09/06 03:42:45;;;;;;;2.80;1.20;;;16.10;97.10;;;;;;5078388;28;20903;-48
2022/09/06 03:45:15;;;;;;;3.00;2.10;;;16.10;97.70;;;;;;5077664;28;20477;-48
2022/09/06 03:47:42;;;;;;;2.07;1.53;;;16.00;98.20;;;;;;5077713;28;20953;-48
2022/09/06 03:50:09;;;;;;;1.93;1.20;;;16.00;98.30;;;;;;5077543;28;20605;-48
2022/09/06 03:52:36;;;;;;;2.43;1.10;;;16.00;98.90;;;;;;5077602;28;20457;-46
2022/09/06 03:55:04;;;;;;;1.97;1.20;;;16.00;99.20;;;;;;5078216;28;20482;-55
2022/09/06 03:57:33;;;;;;;1.77;1.53;;;16.00;99.40;;;;;;5077573;28;20824;-47
2022/09/06 04:00:00;;;;;;;2.13;1.13;;;16.00;99.80;;;;;;5077451;28;20474;-47
2022/09/06 04:02:27;;;;;;;3.00;1.37;;;16.00;99.90;;;;;;5077727;28;20465;-49
2022/09/06 04:04:54;;;;;;;2.23;1.30;;;15.90;99.90;;;;;;5077469;28;20482;-50
2022/09/06 04:07:22;;;;;;;2.10;1.20;;;16.00;99.90;;;;;;5077534;28;20920;-49
2022/09/06 04:09:49;;;;;;;2.17;1.50;;;16.00;99.90;;;;;;5077506;28;20454;-47
2022/09/06 04:12:16;;;;;;;1.90;1.37;;;15.90;99.90;;;;;;5077233;28;20466;-47
2022/09/06 04:14:44;;;;;;;1.50;1.10;;;15.90;99.90;;;;;;5077208;28;20786;-45
2022/09/06 04:17:13;;;;;;;3.20;1.40;;;16.00;99.90;;;;;;5077437;28;20434;-47
2022/09/06 04:19:39;;;;;;;1.60;1.07;;;15.90;99.90;;;;;;5077399;28;20509;-46
2022/09/06 04:22:08;;;;;;;1.97;1.43;;;15.90;99.90;;;;;;5077160;28;20457;-48
2022/09/06 04:24:35;;;;;;;2.30;1.80;;;15.90;99.90;;;;;;5077339;28;20453;-48
2022/09/06 04:27:02;;;;;;;1.73;1.63;;;16.00;99.90;;;;;;5077214;28;20469;-46
2022/09/06 04:29:29;;;;;;;2.47;1.93;;;15.90;99.90;;;;;;5077025;28;20462;-49
2022/09/06 04:31:57;;;;;;;3.43;1.13;;;15.90;99.90;;;;;;5077348;28;20486;-47
2022/09/06 04:34:24;;;;;;;1.87;1.50;;;15.90;99.90;;;;;;5076969;28;20443;-46
2022/09/06 04:36:51;;;;;;;2.97;1.50;;;15.80;99.90;;;;;;5076500;28;20454;-49
2022/09/06 04:39:18;;;;;;;2.07;1.20;;;15.80;99.90;;;;;;5077301;28;20446;-44
2022/09/06 04:41:44;;;;;;;3.00;1.30;;;15.70;99.90;;;;;;5077280;28;20465;-46
2022/09/06 04:44:11;;;;;;;3.70;1.50;;;15.70;99.90;;;;;;5080450;28;20438;-44
2022/09/06 04:46:44;;;;;;;2.43;1.57;;;15.70;99.90;;;;;;5076944;28;20481;-52
2022/09/06 04:49:15;;;;;;;5.40;1.47;;;15.70;99.90;;;;;;5076882;28;20431;-48
2022/09/06 04:51:42;;;;;;;2.83;1.40;;;15.70;99.90;;;;;;5076705;28;20485;-49
2022/09/06 04:54:09;;;;;;;2.70;1.63;;;15.70;99.90;;;;;;5076796;28;20458;-48
2022/09/06 04:56:35;;;;;;;8.43;1.73;;;15.70;99.90;;;;;;5076695;28;20474;-45
2022/09/06 04:59:02;;;;;;;3.20;1.50;;;15.70;99.90;;;;;;5077646;28;20925;-54
2022/09/06 05:01:29;;;;;;;2.70;1.67;;;15.70;99.90;;;;;;5078016;28;20466;-43
2022/09/06 05:03:56;;;;;;;1.57;1.17;;;15.70;99.90;;;;;;5076437;28;20448;-46
2022/09/06 05:06:25;;;;;;;2.27;1.73;;;15.80;99.90;;;;;;5076654;28;20775;-42
2022/09/06 05:08:52;;;;;;;2.23;1.20;;;15.70;99.90;;;;;;5077193;28;20450;-48
2022/09/06 05:11:19;;;;;;;8.93;1.63;;;15.80;99.90;;;;;;5076440;28;20493;-49
2022/09/06 05:13:46;;;;;;;14.27;2.80;;;15.80;99.90;;;;;;5076557;28;20571;-48
2022/09/06 05:16:14;;;;;;;10.00;3.70;;;15.80;99.90;;;;;;5076632;28;20496;-48
2022/09/06 05:18:40;;;;;;;24.27;4.53;;;15.80;99.90;;;;;;5077931;28;20737;-46
2022/09/06 05:21:07;;;;;;;6.73;1.57;;;15.90;99.90;;;;;;5078081;28;20793;-45
2022/09/06 05:23:35;;;;;;;2.90;1.20;;;15.80;99.90;;;;;;5078020;28;20450;-45
2022/09/06 05:26:03;;;;;;;8.60;1.60;;;15.80;99.90;;;;;;5077662;28;20549;-45
2022/09/06 05:28:30;;;;;;;5.40;2.00;;;15.80;99.90;;;;;;5078105;28;20455;-53
2022/09/06 05:31:06;;;;;;;3.43;1.40;;;15.80;99.90;;;;;;5075760;28;20882;-50
2022/09/06 05:33:39;;;;;;;3.53;1.70;;;15.90;99.90;;;;;;5075762;28;20450;-51
2022/09/06 05:36:09;;;;;;;1.80;1.20;;;15.90;99.90;;;;;;5075685;28;20565;-47
2022/09/06 05:38:38;;;;;;;5.23;1.60;;;15.90;99.90;;;;;;5075918;28;20773;-49
2022/09/06 05:41:05;;;;;;;3.57;1.07;;;16.00;99.90;;;;;;5075459;28;20462;-47
2022/09/06 05:43:31;;;;;;;1.83;1.63;;;16.00;99.90;;;;;;5075815;28;20466;-48
2022/09/06 05:45:58;;;;;;;3.20;1.53;;;16.10;99.90;;;;;;5075513;28;21053;-49
2022/09/06 05:48:27;;;;;;;2.60;1.37;;;16.10;99.90;;;;;;5086868;28;20959;-43
2022/09/06 05:51:00;;;;;;;2.20;1.50;;;16.20;99.90;;;;;;5077195;28;20469;-41
2022/09/06 05:53:27;;;;;;;2.23;1.37;;;16.20;99.90;;;;;;5077683;28;20453;-43
2022/09/06 05:55:55;;;;;;;2.20;1.43;;;16.30;99.90;;;;;;5076829;28;20495;-47
2022/09/06 05:58:22;;;;;;;3.77;1.47;;;16.30;99.90;;;;;;5077382;28;20506;-48
2022/09/06 06:00:48;;;;;;;7.30;1.50;;;16.30;99.90;;;;;;5076668;28;20482;-45
2022/09/06 06:03:16;;;;;;;3.40;1.87;;;16.30;99.90;;;;;;5075577;28;20447;-46
2022/09/06 06:05:46;;;;;;;2.03;1.50;;;16.40;99.90;;;;;;5076625;28;20423;-44
2022/09/06 06:08:13;;;;;;;2.97;1.40;;;16.40;99.90;;;;;;5076605;28;20414;-44
2022/09/06 06:10:40;;;;;;;3.50;1.50;;;16.40;99.90;;;;;;5076594;28;20455;-47
2022/09/06 06:13:08;;;;;;;5.10;1.67;;;16.50;99.90;;;;;;5076552;28;20522;-46
2022/09/06 06:15:36;;;;;;;2.63;1.83;;;16.50;99.90;;;;;;5076605;28;20457;-47
2022/09/06 06:18:03;;;;;;;2.50;1.50;;;16.50;99.90;;;;;;5076439;28;20468;-46
2022/09/06 06:20:30;;;;;;;2.90;1.40;;;16.60;99.90;;;;;;5113615;28;20462;-41
2022/09/06 06:22:56;;;;;;;1.60;1.20;;;16.70;99.90;;;;;;5117219;28;20450;-45
2022/09/06 06:25:25;;;;;;;2.23;1.40;;;16.70;99.90;;;;;;5114084;28;20445;-46
2022/09/06 06:27:51;;;;;;;3.83;1.40;;;16.70;99.90;;;;;;5096025;28;20480;-43
2022/09/06 06:30:20;;;;;;;4.50;1.63;;;16.70;99.90;;;;;;5096082;28;20844;-49
2022/09/06 06:32:47;;;;;;;2.30;1.53;;;16.80;99.90;;;;;;5096031;28;20486;-43
2022/09/06 06:35:14;;;;;;;10.70;1.50;;;16.80;99.90;;;;;;5096020;28;20435;-50
2022/09/06 06:37:41;;;;;;;3.93;1.63;;;16.90;99.90;;;;;;5080708;28;20479;-43
2022/09/06 06:40:09;;;;;;;3.87;1.90;;;16.90;99.90;;;;;;5076878;28;20440;-48
2022/09/06 06:42:36;;;;;;;2.70;2.03;;;17.10;99.90;;;;;;5076340;28;20501;-43
2022/09/06 06:45:03;;;;;;;4.60;1.60;;;17.20;99.90;;;;;;5076566;28;20424;-45
2022/09/06 06:47:31;;;;;;;2.40;1.30;;;17.30;99.90;;;;;;5076470;28;20461;-42
2022/09/06 06:49:58;;;;;;;2.27;1.30;;;17.30;99.90;;;;;;5076618;28;20471;-45
2022/09/06 06:52:25;;;;;;;3.30;1.60;;;17.40;99.90;;;;;;5076805;28;20469;-43
2022/09/06 06:54:52;;;;;;;3.70;1.23;;;17.60;99.90;;;;;;5076784;28;20446;-47
2022/09/06 06:57:19;;;;;;;8.50;2.17;;;17.70;99.90;;;;;;5076515;28;20454;-47
2022/09/06 06:59:45;;;;;;;5.70;1.73;;;17.80;99.90;;;;;;5077405;28;20455;-40
2022/09/06 07:02:14;;;;;;;6.07;1.37;;;17.80;99.90;;;;;;5080356;28;20439;-41
2022/09/06 07:04:45;;;;;;;2.20;1.40;;;17.90;99.90;;;;;;5080516;28;20439;-40
2022/09/06 07:07:12;;;;;;;1.90;1.20;;;18.00;99.90;;;;;;5080470;28;20447;-51
2022/09/06 07:09:39;;;;;;;2.17;1.73;;;18.00;99.90;;;;;;5080711;28;20453;-49
2022/09/06 07:12:06;;;;;;;1.47;1.30;;;18.10;99.90;;;;;;5080400;28;20474;-47
2022/09/06 07:14:33;;;;;;;5.10;2.17;;;18.10;99.90;;;;;;5080234;28;20493;-42
2022/09/06 07:16:59;;;;;;;3.20;1.53;;;18.10;99.90;;;;;;5080216;28;20431;-45
2022/09/06 07:19:26;;;;;;;3.13;1.30;;;18.10;99.90;;;;;;5080160;28;20458;-43
2022/09/06 07:21:56;;;;;;;2.03;1.70;;;18.20;99.90;;;;;;5079985;28;20538;-42
2022/09/06 07:24:23;;;;;;;3.67;1.40;;;18.30;99.80;;;;;;5078970;28;20463;-43
2022/09/06 07:26:49;;;;;;;1.47;1.37;;;18.30;99.70;;;;;;5078591;28;20503;-45
2022/09/06 07:29:16;;;;;;;1.73;1.40;;;18.40;99.90;;;;;;5078374;28;20473;-44
2022/09/06 07:31:43;;;;;;;3.20;1.67;;;18.50;99.90;;;;;;5079013;28;20493;-42
2022/09/06 07:34:10;;;;;;;2.70;1.80;;;18.60;99.60;;;;;;5079425;28;20467;-45
2022/09/06 07:36:36;;;;;;;2.23;1.23;;;18.60;99.30;;;;;;5079415;28;20457;-42
2022/09/06 07:39:07;;;;;;;2.90;1.50;;;18.70;99.20;;;;;;5078647;28;20461;-44
2022/09/06 07:41:34;;;;;;;2.40;1.77;;;18.80;99.20;;;;;;5078904;28;20435;-47
2022/09/06 07:44:01;;;;;;;1.90;1.40;;;18.90;99.00;;;;;;5079232;28;20495;-48
2022/09/06 07:46:27;;;;;;;3.30;2.03;;;19.00;99.10;;;;;;5079817;28;20483;-47
2022/09/06 07:48:54;;;;;;;2.37;2.03;;;19.10;98.60;;;;;;5079218;28;20454;-56
2022/09/06 07:51:22;;;;;;;2.90;1.50;;;19.20;98.50;;;;;;5079402;28;20519;-46
2022/09/06 07:53:51;;;;;;;3.53;2.10;;;19.30;98.30;;;;;;5079464;28;20428;-45
2022/09/06 07:56:21;;;;;;;5.20;2.63;;;19.30;97.90;;;;;;5079583;28;20495;-48
2022/09/06 07:58:49;;;;;;;1.40;1.30;;;19.40;97.70;;;;;;5078761;28;20465;-54
2022/09/06 08:01:30;;;;;;;5.27;1.90;;;19.40;97.80;;;;;;5079002;28;20446;-42
2022/09/06 08:03:58;;;;;;;2.73;2.20;;;19.60;97.70;;;;;;5077771;28;20475;-45
2022/09/06 08:06:25;;;;;;;2.77;2.27;;;19.80;97.20;;;;;;5077606;28;20475;-50
2022/09/06 08:08:53;;;;;;;2.57;2.20;;;20.00;96.80;;;;;;5078417;28;20439;-46
2022/09/06 08:11:21;;;;;;;3.70;2.13;;;20.30;96.10;;;;;;5078281;28;20502;-42
2022/09/06 08:13:53;;;;;;;6.10;2.43;;;20.80;95.20;;;;;;5078666;28;20432;-38
2022/09/06 08:16:21;;;;;;;5.30;2.53;;;21.30;94.00;;;;;;5079183;28;20475;-41
2022/09/06 08:18:51;;;;;;;3.37;2.20;;;21.60;92.30;;;;;;5078633;28;20453;-43
2022/09/06 08:21:18;;;;;;;3.17;2.20;;;22.10;91.10;;;;;;5078757;28;20442;-44
2022/09/06 08:23:50;;;;;;;6.13;2.30;;;22.20;90.10;;;;;;5078479;28;20415;-47
2022/09/06 08:26:19;;;;;;;5.43;2.90;;;22.40;89.70;;;;;;5078630;28;20432;-44
2022/09/06 08:28:48;;;;;;;3.73;2.40;;;22.60;87.30;;;;;;5078544;28;20431;-40
2022/09/06 08:31:16;;;;;;;2.60;2.03;;;22.80;86.50;;;;;;5094300;28;20435;-44
2022/09/06 08:33:44;;;;;;;3.33;2.80;;;23.00;84.90;;;;;;5094917;28;20468;-49
2022/09/06 08:36:11;;;;;;;3.83;2.30;;;23.10;83.60;;;;;;5094541;28;20467;-49
2022/09/06 08:38:38;;;;;;;3.17;2.10;;;23.10;83.20;;;;;;5094995;28;20473;-49
2022/09/06 08:41:12;;;;;;;3.80;2.50;;;23.20;82.40;;;;;;5094853;28;20442;-49
2022/09/06 08:43:39;;;;;;;2.77;1.93;;;23.60;81.90;;;;;;5094808;28;20550;-48
2022/09/06 08:46:09;;;;;;;2.33;1.93;;;23.90;79.70;;;;;;5093608;28;20450;-45
2022/09/06 08:48:38;;;;;;;2.87;2.20;;;24.00;77.90;;;;;;5094919;28;20489;-51
2022/09/06 08:51:42;;;;;;;3.40;2.17;;;24.20;77.70;;;;;;5095283;28;20441;-44
2022/09/06 08:54:13;;;;;;;2.63;2.10;;;24.50;76.00;;;;;;5076802;28;20870;-45
2022/09/06 08:56:52;;;;;;;9.20;2.70;;;24.90;75.40;;;;;;5093268;28;20442;-47
2022/09/06 08:59:19;;;;;;;4.77;4.47;;;25.40;73.10;;;;;;5093236;28;20457;-45
2022/09/06 09:01:58;;;;;;;3.97;2.33;;;25.80;70.50;;;;;;5092904;28;20445;-44
2022/09/06 09:04:28;;;;;;;4.30;3.00;;;25.80;70.10;;;;;;5092167;28;20462;-42
2022/09/06 09:07:02;;;;;;;3.90;2.83;;;25.60;69.90;;;;;;5091359;28;20541;-42
2022/09/06 09:09:32;;;;;;;5.83;3.47;;;25.60;69.70;;;;;;5092262;28;20480;-43
2022/09/06 09:12:00;;;;;;;10.70;3.70;;;25.50;69.60;;;;;;5092775;28;20473;-49
2022/09/06 09:14:29;;;;;;;8.53;3.20;;;25.50;69.50;;;;;;5093193;28;20477;-45
2022/09/06 09:17:04;;;;;;;2.77;2.30;;;25.80;68.50;;;;;;5092377;28;20510;-43
2022/09/06 09:19:35;;;;;;;2.77;2.13;;;25.80;68.40;;;;;;5091042;28;20537;-45
2022/09/06 09:22:02;;;;;;;6.33;2.93;;;25.90;68.20;;;;;;5090588;28;20419;-46
2022/09/06 09:24:30;;;;;;;8.23;4.20;;;25.90;68.20;;;;;;5090863;28;20501;-46
2022/09/06 09:27:05;;;;;;;3.80;2.70;;;25.60;67.50;;;;;;5091566;28;20506;-44
2022/09/06 09:29:32;;;;;;;6.23;2.83;;;25.60;68.30;;;;;;5090964;28;20968;-44
2022/09/06 09:32:00;;;;;;;2.73;2.33;;;25.40;67.70;;;;;;5091521;28;20476;-53
2022/09/06 09:34:32;;;;;;;3.33;2.60;;;25.40;69.30;;;;;;5091798;28;20831;-48
2022/09/06 09:37:13;;;;;;;3.00;2.50;;;25.60;68.40;;;;;;5091944;28;20423;-55
2022/09/06 09:39:40;;;;;;;4.57;2.93;;;25.70;67.40;;;;;;5092001;28;20442;-52
2022/09/06 09:42:08;;;;;;;3.13;2.70;;;25.60;67.90;;;;;;5092205;28;20506;-54
2022/09/06 09:44:41;;;;;;;4.50;2.60;;;25.40;67.40;;;;;;5091688;28;20454;-53
2022/09/06 09:47:24;;;;;;;5.87;3.20;;;25.20;68.50;;;;;;5084677;28;20452;-51
2022/09/06 09:49:50;;;;;;;10.73;2.87;;;25.10;68.80;;;;;;5080979;28;20431;-54
2022/09/06 09:52:24;;;;;;;2.67;2.20;;;24.80;69.50;;;;;;5092492;28;20478;-54
2022/09/06 09:54:54;;;;;;;3.00;2.10;;;24.50;70.90;;;;;;5092121;28;20461;-50
2022/09/06 09:57:23;;;;;;;2.70;2.50;;;24.20;71.00;;;;;;5091784;28;20438;-51
2022/09/06 09:59:52;;;;;;;3.10;2.80;;;24.00;72.10;;;;;;5092114;28;20449;-44
2022/09/06 10:02:25;;;;;;;2.93;2.30;;;23.80;73.00;;;;;;5094270;28;20462;-47
2022/09/06 10:04:58;;;;;;;6.63;2.97;;;23.70;73.20;;;;;;5132545;22;20640;-48
2022/09/06 10:07:26;;;;;;;6.77;2.80;;;23.70;74.30;;;;;;5095390;28;20518;-49
2022/09/06 10:09:59;;;;;;;4.50;2.67;;;23.80;75.30;;;;;;5094756;28;20477;-55
2022/09/06 10:12:30;;;;;;;3.47;2.80;;;24.00;74.00;;;;;;5094695;28;20851;-52
2022/09/06 10:14:57;;;;;;;3.53;2.73;;;24.10;73.40;;;;;;5095282;28;20415;-47
2022/09/06 10:17:31;;;;;;;4.27;3.33;;;24.10;74.00;;;;;;5095587;28;20422;-51
2022/09/06 10:20:03;;;;;;;3.40;2.83;;;24.10;74.40;;;;;;5095514;28;20461;-50
2022/09/06 10:22:31;;;;;;;3.47;2.77;;;24.00;74.40;;;;;;5096258;28;20423;-50
2022/09/06 10:25:17;;;;;;;6.93;3.60;;;23.80;73.80;;;;;;5095509;28;20434;-53
2022/09/06 10:27:59;;;;;;;4.90;3.93;;;23.70;73.90;;;;;;5096304;28;20426;-54
2022/09/06 10:30:29;;;;;;;4.00;3.37;;;23.50;73.80;;;;;;5096390;28;20486;-54
2022/09/06 10:33:04;;;;;;;4.00;3.60;;;23.40;74.40;;;;;;5096459;28;20461;-51
2022/09/06 10:35:34;;;;;;;3.33;3.00;;;23.20;75.00;;;;;;5095455;28;20426;-53
2022/09/06 10:38:20;;;;;;;5.60;3.90;;;23.10;75.50;;;;;;5096286;28;20472;-47
2022/09/06 10:40:57;;;;;;;5.20;3.27;;;23.00;76.80;;;;;;5096367;28;20494;-51
2022/09/06 10:43:27;;;;;;;3.47;3.17;;;22.90;76.20;;;;;;5096262;28;20454;-56
2022/09/06 10:45:59;;;;;;;3.87;3.13;;;22.80;76.50;;;;;;5096255;28;20440;-53
2022/09/06 10:48:31;;;;;;;3.90;2.93;;;22.80;76.90;;;;;;5096058;28;20427;-53
2022/09/06 10:51:00;;;;;;;4.97;3.10;;;22.80;77.20;;;;;;5096093;28;20449;-50
2022/09/06 10:53:36;;;;;;;4.20;3.80;;;22.80;77.60;;;;;;5096177;28;20551;-51
2022/09/06 10:56:07;;;;;;;5.50;4.20;;;22.70;77.70;;;;;;5096179;28;20732;-51
2022/09/06 10:58:41;;;;;;;6.20;3.80;;;22.80;78.60;;;;;;5096318;28;20461;-55
2022/09/06 11:01:22;;;;;;;5.00;3.13;;;22.90;78.40;;;;;;5096129;28;20439;-56
2022/09/06 11:03:51;;;;;;;5.10;2.93;;;22.90;79.00;;;;;;5095934;28;20501;-50
2022/09/06 11:06:21;;;;;;;7.63;3.60;;;23.00;78.30;;;;;;5097016;28;20411;-50
2022/09/06 11:08:54;;;;;;;5.57;3.33;;;23.20;78.90;;;;;;5097006;28;20461;-45
2022/09/06 11:11:28;;;;;;;5.83;2.70;;;23.30;79.60;;;;;;5096886;28;20430;-51
2022/09/06 11:13:55;;;;;;;4.97;3.30;;;23.50;78.80;;;;;;5096508;28;20537;-54
2022/09/06 11:16:25;;;;;;;4.03;3.07;;;23.60;77.20;;;;;;5096619;28;20449;-57
2022/09/06 11:18:57;;;;;;;3.63;3.20;;;23.90;76.20;;;;;;5095658;28;20510;-50
2022/09/06 11:21:49;;;;;;;5.60;3.80;;;24.10;77.30;;;;;;5095415;28;20644;-53
2022/09/06 11:24:22;;;;;;;4.57;2.90;;;24.30;74.60;;;;;;5095131;28;20466;-55
2022/09/06 11:27:04;;;;;;;4.17;3.20;;;24.50;73.80;;;;;;5094814;28;20490;-54
2022/09/06 11:29:33;;;;;;;6.03;4.00;;;24.50;73.10;;;;;;5094702;28;20426;-50
2022/09/06 11:32:02;;;;;;;5.77;4.10;;;24.40;72.90;;;;;;5094545;28;20999;-51
2022/09/06 11:34:33;;;;;;;3.93;3.17;;;24.30;73.10;;;;;;5094828;28;20573;-54
2022/09/06 11:37:01;;;;;;;3.80;3.40;;;24.20;73.40;;;;;;5094956;28;20460;-55
2022/09/06 11:39:32;;;;;;;6.03;3.13;;;24.00;73.30;;;;;;5095141;28;20453;-49
2022/09/06 11:41:59;;;;;;;2.93;2.63;;;23.90;73.40;;;;;;5095095;28;20708;-55
2022/09/06 11:44:53;;;;;;;3.83;3.00;;;23.80;74.20;;;;;;5095129;28;20489;-56
2022/09/06 11:47:47;;;;;;;4.47;3.33;;;23.70;75.60;;;;;;5063504;28;20426;-50
2022/09/06 11:50:47;;;;;;;5.17;3.30;;;23.60;75.00;;;;;;5063477;28;20500;-52
2022/09/06 11:53:16;;;;;;;6.13;3.70;;;23.50;76.10;;;;;;5100281;28;20500;-55
2022/09/06 11:55:45;;;;;;;11.20;3.73;;;23.50;76.20;;;;;;5100503;28;20505;-54
2022/09/06 11:58:23;;;;;;;4.60;3.80;;;23.40;77.10;;;;;;5098983;28;20439;-53
2022/09/06 12:01:35;;;;;;;4.97;3.23;;;23.50;78.20;;;;;;5098466;28;20430;-54
2022/09/06 12:04:06;;;;;;;7.10;4.50;;;23.40;77.50;;;;;;5036906;28;20507;-54
2022/09/06 12:06:36;;;;;;;3.80;3.10;;;23.40;76.80;;;;;;5085949;28;20489;-46
2022/09/06 12:09:30;;;;;;;3.67;3.30;;;23.30;76.60;;;;;;5098656;28;20454;-49
2022/09/06 12:11:58;;;;;;;3.90;3.50;;;23.20;77.80;;;;;;5098725;28;20426;-56
2022/09/06 12:14:34;;;;;;;4.40;3.13;;;23.30;77.80;;;;;;5098832;28;20585;-55
2022/09/06 12:17:25;;;;;;;4.80;4.30;;;23.30;77.40;;;;;;5098341;28;20486;-54
2022/09/06 12:20:03;;;;;;;5.17;3.63;;;23.30;77.40;;;;;;5098341;28;20437;-52
2022/09/06 12:22:54;;;;;;;4.97;3.20;;;23.30;77.60;;;;;;5097790;28;20427;-53
2022/09/06 12:25:53;;;;;;;5.20;3.33;;;23.30;77.50;;;;;;5097863;28;20423;-53
2022/09/06 12:28:41;;;;;;;7.23;3.97;;;23.30;77.40;;;;;;5097970;28;20439;-54
2022/09/06 12:31:31;;;;;;;4.67;4.17;;;23.40;77.60;;;;;;5097168;28;20417;-55
2022/09/06 12:34:06;;;;;;;4.23;3.57;;;23.40;77.30;;;;;;5097845;28;20533;-53
2022/09/06 12:36:33;;;;;;;4.07;3.40;;;23.40;77.40;;;;;;5097363;28;20418;-54
2022/09/06 12:39:04;;;;;;;4.63;3.87;;;23.50;77.20;;;;;;5097921;28;20537;-52
2022/09/06 12:41:32;;;;;;;4.60;3.60;;;23.50;77.10;;;;;;5097105;28;20457;-54
2022/09/06 12:44:00;;;;;;;3.90;3.33;;;23.60;77.10;;;;;;5097153;28;20502;-52
2022/09/06 12:46:31;;;;;;;3.50;3.20;;;23.70;77.00;;;;;;5097987;28;20501;-53
2022/09/06 12:49:09;;;;;;;6.00;4.00;;;23.70;77.40;;;;;;5097734;28;20718;-54
2022/09/06 12:51:36;;;;;;;3.60;3.30;;;23.80;76.90;;;;;;5097273;28;20534;-54
2022/09/06 12:54:19;;;;;;;5.80;4.33;;;23.90;76.70;;;;;;5097217;28;20496;-55
2022/09/06 12:56:46;;;;;;;3.47;3.13;;;24.00;76.80;;;;;;5096743;28;20427;-50
2022/09/06 12:59:16;;;;;;;3.50;3.20;;;24.10;76.30;;;;;;5096826;28;20422;-52
2022/09/06 13:01:51;;;;;;;3.20;2.90;;;24.20;76.00;;;;;;5095748;28;20490;-56
2022/09/06 13:04:26;;;;;;;4.50;4.10;;;24.30;75.60;;;;;;5096397;28;20449;-50